Flight Track Log - Related Links

Times and Time Zones

All times are in EDT time to prevent confusion due to time zone crossing. See the ASQ4329 flight status page for this flight to view local times or setup timezone preferences in your user account.


Time Position Orientation Groundspeed Altitude Reporting Facility
EDT Latitude Longitude Course Direction KTS MPH feet Rate Location/Type
Wed 04:32:54 PM 40.6436 -74.1817 250° West 185 213 2,000  Level New York Center
Wed 04:33:54 PM 40.6250 -74.2489 272° West 204 235 4,300 2,150 Climbing New York Center
Wed 04:34:54 PM 40.6269 -74.3256 274° West 240 276 6,300 2,085 Climbing New York Center
Wed 04:35:52 PM 40.6322 -74.4217 280° West 248 285 8,400 1,757 Climbing New York Center
Wed 04:37:14 PM 40.6500 -74.5500 274° West 282 325 10,400 1,286 Climbing New York TRACON
Wed 04:38:54 PM 40.6581 -74.7211 276° West 313 360 12,300 1,538 Climbing New York Center
Wed 04:39:54 PM 40.6683 -74.8450 275° West 313 360 14,500 1,881 Climbing New York Center
Wed 04:40:52 PM 40.6750 -74.9575 274° West 313 360 16,000 1,462 Climbing New York Center
Wed 04:41:53 PM 40.6811 -75.0728 244° Southwest 313 360 17,400 1,475 Climbing New York Center
Wed 04:42:54 PM 40.6397 -75.1822 238° Southwest 313 360 19,000 1,488 Climbing New York Center
Wed 04:43:54 PM 40.5897 -75.2883 239° Southwest 320 368 20,400 1,412 Climbing New York Center
Wed 04:44:53 PM 40.5397 -75.3972 238° Southwest 343 395 21,800 1,400 Climbing New York Center
Wed 04:45:54 PM 40.4897 -75.5031 237° Southwest 349 402 23,200 1,426 Climbing New York Center
Wed 04:46:55 PM 40.4328 -75.6192 239° Southwest 369 425 24,700 1,424 Climbing New York Center
Wed 04:47:52 PM 40.3825 -75.7272 238° Southwest 364 419 26,000 1,333 Climbing New York Center
Wed 04:48:52 PM 40.3319 -75.8353 238° Southwest 359 413 27,300 893 Climbing New York Center
Wed 04:49:53 PM 40.2794 -75.9458 239° Southwest 359 413 27,800 738 Climbing New York Center
Wed 04:50:54 PM 40.2261 -76.0614 239° Southwest 364 419 28,800 942 Climbing New York Center
Wed 04:51:54 PM 40.1731 -76.1769 242° Southwest 376 433 29,700 843 Climbing New York Center
Wed 04:52:55 PM 40.1283 -76.2847 239° Southwest 371 427 30,500 966 Climbing New York Center
Wed 04:53:52 PM 40.0750 -76.4000 239° Southwest 371 427 31,600 1,068 Climbing New York Center
Wed 04:54:53 PM 40.0214 -76.5175 238° Southwest 371 427 32,600 942 Climbing New York Center
Wed 04:55:53 PM 39.9656 -76.6350 238° Southwest 376 433 33,500 1,150 Climbing New York Center
Wed 04:56:53 PM 39.9053 -76.7597 239° Southwest 376 433 34,900 1,039 Climbing New York Center
Wed 04:58:00 PM 39.8528 -76.8725 238° Southwest 374 430 35,700 512 Climbing Washington Center
Wed 04:59:02 PM 39.7994 -76.9850 238° Southwest 374 430 36,000 146 Climbing Washington Center
Wed 05:00:03 PM 39.7417 -77.1053 238° Southwest 384 442 36,000  Level Washington Center
Wed 05:01:00 PM 39.6817 -77.2308 238° Southwest 390 449 36,000  Level Washington Center
Wed 05:02:01 PM 39.6194 -77.3614 238° Southwest 415 478 36,000  Level Washington Center
Wed 05:04:02 PM 39.4944 -77.6247 237° Southwest 426 490 36,000  Level Washington Center
Wed 05:05:02 PM 39.4317 -77.7519 240° Southwest 426 490 36,000  Level Washington Center
Wed 05:06:00 PM 39.3667 -77.8975 243° Southwest 426 490 36,000  Level Washington Center
Wed 05:07:00 PM 39.3139 -78.0300 243° Southwest 421 484 36,000  Level Washington Center
Wed 05:08:01 PM 39.2611 -78.1622 243° Southwest 416 479 36,000  Level Washington Center
Wed 05:09:01 PM 39.2106 -78.2892 243° Southwest 411 473 36,000  Level Washington Center
Wed 05:10:02 PM 39.1575 -78.4208 242° Southwest 411 473 36,000  Level Washington Center
Wed 05:11:00 PM 39.1044 -78.5472 243° Southwest 405 466 36,000  Level Washington Center
Wed 05:12:01 PM 39.0508 -78.6814 242° Southwest 410 472 36,000  Level Washington Center
Wed 05:13:02 PM 38.9975 -78.8100 241° Southwest 410 472 36,000  Level Washington Center
Wed 05:14:02 PM 38.9419 -78.9411 243° Southwest 410 472 36,000  Level Washington Center
Wed 05:15:00 PM 38.8881 -79.0747 244° Southwest 410 472 36,000  Level Washington Center
Wed 05:16:01 PM 38.8383 -79.2031 256° West 410 472 36,000  Level Washington Center
Wed 05:17:01 PM 38.8136 -79.3269 257° West 410 472 36,000  Level Washington Center
Wed 05:18:02 PM 38.7886 -79.4617 261° West 395 455 36,000  Level Washington Center
Wed 05:19:03 PM 38.7717 -79.5964 257° West 395 455 36,000  Level Washington Center
Wed 05:20:00 PM 38.7486 -79.7256 256° West 388 447 36,000  Level Washington Center
Wed 05:21:01 PM 38.7231 -79.8547 255° West 382 440 36,000  Level Washington Center
Wed 05:23:11 PM 38.6631 -80.1500 258° West 370 426 36,000  Level Indianapolis Center
Wed 05:24:11 PM 38.6400 -80.2867 256° West 376 433 36,000  Level Indianapolis Center
Wed 05:25:11 PM 38.6144 -80.4206 257° West 383 441 36,000  Level Indianapolis Center
Wed 05:26:11 PM 38.5908 -80.5547 255° West 388 447 36,000  Level Indianapolis Center
Wed 05:27:11 PM 38.5683 -80.6592 253° West 388 447 36,000  Level Indianapolis Center
Wed 05:28:11 PM 38.5342 -80.8039 252° West 388 447 36,000  Level Indianapolis Center
Wed 05:29:11 PM 38.5017 -80.9350 253° West 393 452 36,000  Level Indianapolis Center
Wed 05:30:11 PM 38.4692 -81.0664 251° West 398 458 36,000  Level Indianapolis Center
Wed 05:31:11 PM 38.4322 -81.2028 253° West 398 458 36,000  Level Indianapolis Center
Wed 05:32:11 PM 38.3994 -81.3364 252° West 403 464 36,000  Level Indianapolis Center
Wed 05:33:11 PM 38.3644 -81.4725 251° West 409 471 36,000  Level Indianapolis Center
Wed 05:34:11 PM 38.3292 -81.6058 253° West 409 471 36,000  Level Indianapolis Center
Wed 05:35:11 PM 38.2981 -81.7389 252° West 409 471 36,000 -300 Level Indianapolis Center
Wed 05:36:11 PM 38.2644 -81.8669 251° West 404 465 35,400 -800 Descending Indianapolis Center
Wed 05:37:11 PM 38.2306 -81.9944 253° West 399 459 34,400 -1,000 Descending Indianapolis Center
Wed 05:38:11 PM 38.1989 -82.1247 250° West 388 447 33,400 -1,050 Descending Indianapolis Center
Wed 05:39:11 PM 38.1589 -82.2681 252° West 388 447 32,300 -700 Descending Indianapolis Center
Wed 05:40:11 PM 38.1247 -82.4006 252° West 393 452 32,000 -150 Descending Indianapolis Center
Wed 05:41:11 PM 38.0906 -82.5331 251° West 393 452 32,000  Level Indianapolis Center
Wed 05:42:11 PM 38.0542 -82.6656 252° West 400 460 32,000  Level Indianapolis Center
Wed 05:43:11 PM 38.0197 -82.8006 251° West 405 466 32,000  Level Indianapolis Center
Wed 05:44:11 PM 37.9828 -82.9353 250° West 410 472 32,000  Level Indianapolis Center
Wed 05:45:11 PM 37.9439 -83.0725 250° West 410 472 32,000  Level Indianapolis Center
Wed 05:46:11 PM 37.9067 -83.2042 252° West 410 472 32,000  Level Indianapolis Center
Wed 05:47:11 PM 37.8717 -83.3414 251° West 410 472 32,000 -500 Level Indianapolis Center
Wed 05:48:11 PM 37.8342 -83.4781 250° West 410 472 31,000 -1,050 Descending Indianapolis Center
Wed 05:49:11 PM 37.7947 -83.6147 251° West 410 472 29,900 -1,050 Descending Indianapolis Center
Wed 05:50:11 PM 37.7569 -83.7514 251° West 410 472 28,900 -1,050 Descending Indianapolis Center
Wed 05:51:11 PM 37.7192 -83.8906 250° West 410 472 27,800 -1,050 Descending Indianapolis Center
Wed 05:52:11 PM 37.6789 -84.0267 251° West 410 472 26,800 -1,050 Descending Indianapolis Center
Wed 05:53:11 PM 37.6408 -84.1628 251° West 410 472 25,700 -1,200 Descending Indianapolis Center
Wed 05:54:11 PM 37.6025 -84.3017 250° West 415 478 24,400 -1,500 Descending Indianapolis Center
Wed 05:55:11 PM 37.5642 -84.4322 251° West 415 478 22,700 -2,000 Descending Indianapolis Center
Wed 05:56:11 PM 37.5275 -84.5628 251° West 402 463 20,400 -2,900 Descending Indianapolis Center
Wed 05:57:11 PM 37.4953 -84.6825 251° West 383 441 16,900 -3,300 Descending Indianapolis Center
Wed 05:58:11 PM 37.4628 -84.7997 255° West 371 427 13,800 -2,700 Descending Indianapolis Center
Wed 05:59:11 PM 37.4406 -84.9067 321° Northwest 340 391 11,500 -1,400 Descending Indianapolis Center
Wed 06:00:11 PM 37.5067 -84.9733 North 274 315 11,000 -300 Descending Indianapolis Center
Wed 06:01:11 PM 37.6028 -84.9594 342° North 345 397 10,900  Descending Indianapolis Center
Wed 06:02:11 PM 37.6900 -84.9953 310° West 335 386 11,000 -350 Climbing Indianapolis Center
Wed 06:03:11 PM 37.7472 -85.0806 311° West 317 365 10,200 -500 Descending Indianapolis Center
Wed 06:04:11 PM 37.8006 -85.1578 313° West 310 357 10,000 -400 Descending Indianapolis Center
Wed 06:05:11 PM 37.8517 -85.2272 314° West 293 337 9,400 -1,107 Descending Indianapolis Center
Wed 06:05:54 PM 37.8822 -85.2669 312° West 242 278 8,100 -1,714 Descending FAA TRACON SMA TRACON (SMA)
Wed 06:06:35 PM 37.9142 -85.3114 312° West 248 285 7,000 -1,425 Descending FAA TRACON SMA TRACON (SMA)
Wed 06:07:14 PM 37.9467 -85.3575 312° West 256 295 6,200 -835 Descending FAA TRACON SMA TRACON (SMA)
Wed 06:07:54 PM 37.9806 -85.4047 312° West 262 302 5,900 -225 Descending FAA TRACON SMA TRACON (SMA)
Wed 06:08:34 PM 38.0108 -85.4469 312° West 264 304 5,900  Level FAA TRACON SMA TRACON (SMA)
Wed 06:09:13 PM 38.0447 -85.4942 311° West 261 300 5,900  Level FAA TRACON SMA TRACON (SMA)
Wed 06:09:54 PM 38.0739 -85.5361 314° West 258 297 5,900  Level FAA TRACON SMA TRACON (SMA)
Wed 06:10:34 PM 38.1081 -85.5814 343° North 257 296 5,900  Level FAA TRACON SMA TRACON (SMA)
Wed 06:11:14 PM 38.1572 -85.6003 346° North 268 308 5,900 -519 Level FAA TRACON SMA TRACON (SMA)
Wed 06:11:55 PM 38.2069 -85.6164 345° North 266 306 5,200 -1,200 Descending FAA TRACON SMA TRACON (SMA)
Wed 06:12:34 PM 38.2506 -85.6311 339° North 262 302 4,300 -848 Descending FAA TRACON SMA TRACON (SMA)
Wed 06:13:34 PM 38.3153 -85.6625 273° West 221 254 3,800 -667 Descending FAA TRACON SMA TRACON (SMA)
Wed 06:14:13 PM 38.3167 -85.6919 237° Southwest 134 154 3,200 -900 Descending FAA TRACON SMA TRACON (SMA)
Wed 06:14:54 PM 38.3042 -85.7161 211° Southwest 120 138 2,600 -593 Descending FAA TRACON SMA TRACON (SMA)
Wed 06:15:34 PM 38.2853 -85.7308 200° South 116 133 2,400 -450 Descending FAA TRACON SMA TRACON (SMA)
Wed 06:16:14 PM 38.2664 -85.7397 192° South 115 132 2,000 -525 Descending FAA TRACON SMA TRACON (SMA)
Wed 06:16:54 PM 38.2442 -85.7458 192° South 119 137 1,700 -450 Descending FAA TRACON SMA TRACON (SMA)

Login

Don't have an account? Register now (free) for customized features, flight alerts, and more!